sensor_id;sensor_type;location;lat;lon;timestamp;pressure;altitude;pressure_sealevel;temperature;humidity
23677;BME280;31493;49.058;12.190;2024-03-06T00:01:38;96014.78;;;5.37;100.00
23677;BME280;31493;49.058;12.190;2024-03-06T00:04:05;96015.03;;;5.33;100.00
23677;BME280;31493;49.058;12.190;2024-03-06T00:06:32;96027.94;;;5.31;100.00
23677;BME280;31493;49.058;12.190;2024-03-06T00:08:59;96021.31;;;5.27;100.00
23677;BME280;31493;49.058;12.190;2024-03-06T00:11:29;96021.16;;;5.30;100.00
23677;BME280;31493;49.058;12.190;2024-03-06T00:13:56;96032.13;;;5.34;100.00
23677;BME280;31493;49.058;12.190;2024-03-06T00:16:23;96039.91;;;5.32;100.00
23677;BME280;31493;49.058;12.190;2024-03-06T00:18:50;96047.22;;;5.40;100.00
23677;BME280;31493;49.058;12.190;2024-03-06T00:21:18;96034.53;;;5.37;100.00
23677;BME280;31493;49.058;12.190;2024-03-06T00:23:45;96044.97;;;5.34;100.00
23677;BME280;31493;49.058;12.190;2024-03-06T00:26:12;96045.13;;;5.31;100.00
23677;BME280;31493;49.058;12.190;2024-03-06T00:28:41;96052.53;;;5.19;100.00
23677;BME280;31493;49.058;12.190;2024-03-06T00:31:08;96044.81;;;5.19;100.00
23677;BME280;31493;49.058;12.190;2024-03-06T00:33:35;96042.19;;;5.21;100.00
23677;BME280;31493;49.058;12.190;2024-03-06T00:36:03;96042.03;;;5.24;100.00
23677;BME280;31493;49.058;12.190;2024-03-06T00:38:30;96049.34;;;5.32;100.00
23677;BME280;31493;49.058;12.190;2024-03-06T00:40:57;96052.09;;;5.29;100.00
23677;BME280;31493;49.058;12.190;2024-03-06T00:43:24;96050.06;;;5.18;100.00
23677;BME280;31493;49.058;12.190;2024-03-06T00:45:52;96054.16;;;5.22;100.00
23677;BME280;31493;49.058;12.190;2024-03-06T00:48:19;96051.78;;;5.17;100.00
23677;BME280;31493;49.058;12.190;2024-03-06T00:50:46;96049.50;;;5.29;100.00
23677;BME280;31493;49.058;12.190;2024-03-06T00:53:14;96050.13;;;5.16;100.00
23677;BME280;31493;49.058;12.190;2024-03-06T00:55:41;96057.69;;;5.19;100.00
23677;BME280;31493;49.058;12.190;2024-03-06T00:58:08;96050.28;;;5.13;100.00
23677;BME280;31493;49.058;12.190;2024-03-06T01:00:35;96054.91;;;5.07;100.00
23677;BME280;31493;49.058;12.190;2024-03-06T01:03:04;96054.16;;;5.05;100.00
23677;BME280;31493;49.058;12.190;2024-03-06T01:05:31;96049.00;;;5.05;100.00
23677;BME280;31493;49.058;12.190;2024-03-06T01:07:58;96054.84;;;5.08;100.00
23677;BME280;31493;49.058;12.190;2024-03-06T01:10:26;96049.41;;;5.14;100.00
23677;BME280;31493;49.058;12.190;2024-03-06T01:12:53;96052.72;;;5.16;100.00
23677;BME280;31493;49.058;12.190;2024-03-06T01:15:20;96040.38;;;5.23;100.00
23677;BME280;31493;49.058;12.190;2024-03-06T01:17:47;96039.53;;;5.23;100.00
23677;BME280;31493;49.058;12.190;2024-03-06T01:20:16;96038.84;;;5.19;100.00
23677;BME280;31493;49.058;12.190;2024-03-06T01:22:44;96040.88;;;5.30;100.00
23677;BME280;31493;49.058;12.190;2024-03-06T01:25:12;96033.06;;;5.15;100.00
23677;BME280;31493;49.058;12.190;2024-03-06T01:27:39;96038.63;;;5.24;100.00
23677;BME280;31493;49.058;12.190;2024-03-06T01:30:07;96047.41;;;5.19;100.00
23677;BME280;31493;49.058;12.190;2024-03-06T01:32:34;96042.53;;;5.31;100.00
23677;BME280;31493;49.058;12.190;2024-03-06T01:35:02;96044.06;;;5.35;100.00
23677;BME280;31493;49.058;12.190;2024-03-06T01:37:32;96052.63;;;5.18;100.00
23677;BME280;31493;49.058;12.190;2024-03-06T01:39:59;96048.91;;;5.24;100.00
23677;BME280;31493;49.058;12.190;2024-03-06T01:42:26;96054.88;;;5.24;100.00
23677;BME280;31493;49.058;12.190;2024-03-06T01:44:53;96051.25;;;5.28;100.00
23677;BME280;31493;49.058;12.190;2024-03-06T01:47:20;96054.97;;;5.23;100.00
23677;BME280;31493;49.058;12.190;2024-03-06T01:49:48;96057.91;;;5.32;100.00
23677;BME280;31493;49.058;12.190;2024-03-06T01:52:16;96057.16;;;5.30;100.00
23677;BME280;31493;49.058;12.190;2024-03-06T01:54:47;96047.69;;;5.31;100.00
23677;BME280;31493;49.058;12.190;2024-03-06T01:57:16;96047.84;;;5.28;100.00
23677;BME280;31493;49.058;12.190;2024-03-06T01:59:44;96054.97;;;5.23;100.00
23677;BME280;31493;49.058;12.190;2024-03-06T02:02:11;96052.41;;;5.23;100.00
23677;BME280;31493;49.058;12.190;2024-03-06T02:04:38;96053.31;;;5.22;100.00
23677;BME280;31493;49.058;12.190;2024-03-06T02:07:08;96050.59;;;5.07;100.00
23677;BME280;31493;49.058;12.190;2024-03-06T02:09:37;96048.88;;;5.08;100.00
23677;BME280;31493;49.058;12.190;2024-03-06T02:12:06;96041.09;;;5.09;100.00
23677;BME280;31493;49.058;12.190;2024-03-06T02:14:34;96038.34;;;5.12;100.00
23677;BME280;31493;49.058;12.190;2024-03-06T02:17:01;96057.84;;;4.99;100.00
23677;BME280;31493;49.058;12.190;2024-03-06T02:19:37;96034.28;;;5.08;100.00
23677;BME280;31493;49.058;12.190;2024-03-06T02:22:06;96049.44;;;5.13;100.00
23677;BME280;31493;49.058;12.190;2024-03-06T02:24:34;96043.19;;;5.01;100.00
23677;BME280;31493;49.058;12.190;2024-03-06T02:27:02;96040.94;;;4.95;100.00
23677;BME280;31493;49.058;12.190;2024-03-06T02:29:31;96040.91;;;5.12;100.00
23677;BME280;31493;49.058;12.190;2024-03-06T02:31:58;96047.75;;;4.96;100.00
23677;BME280;31493;49.058;12.190;2024-03-06T02:34:25;96049.50;;;4.96;100.00
23677;BME280;31493;49.058;12.190;2024-03-06T02:36:52;96046.97;;;4.94;100.00
23677;BME280;31493;49.058;12.190;2024-03-06T02:39:21;96038.56;;;4.90;100.00
23677;BME280;31493;49.058;12.190;2024-03-06T02:41:48;96040.09;;;4.95;100.00
23677;BME280;31493;49.058;12.190;2024-03-06T02:44:15;96040.63;;;4.84;100.00
23677;BME280;31493;49.058;12.190;2024-03-06T02:46:46;96044.84;;;4.85;100.00
23677;BME280;31493;49.058;12.190;2024-03-06T02:49:14;96031.00;;;4.87;100.00
23677;BME280;31493;49.058;12.190;2024-03-06T02:51:41;96028.34;;;4.89;100.00
23677;BME280;31493;49.058;12.190;2024-03-06T02:54:08;96037.47;;;4.96;100.00
23677;BME280;31493;49.058;12.190;2024-03-06T02:56:37;96032.34;;;4.96;100.00
23677;BME280;31493;49.058;12.190;2024-03-06T02:59:04;96032.47;;;4.93;100.00
23677;BME280;31493;49.058;12.190;2024-03-06T03:01:31;96031.09;;;4.86;100.00
23677;BME280;31493;49.058;12.190;2024-03-06T03:03:59;96040.31;;;4.90;100.00
23677;BME280;31493;49.058;12.190;2024-03-06T03:06:26;96036.69;;;4.94;100.00
23677;BME280;31493;49.058;12.190;2024-03-06T03:08:54;96030.72;;;4.93;100.00
23677;BME280;31493;49.058;12.190;2024-03-06T03:11:22;96034.81;;;4.98;100.00
23677;BME280;31493;49.058;12.190;2024-03-06T03:13:50;96036.69;;;4.94;100.00
23677;BME280;31493;49.058;12.190;2024-03-06T03:16:17;96027.41;;;5.09;100.00
23677;BME280;31493;49.058;12.190;2024-03-06T03:18:45;96040.25;;;4.91;100.00
23677;BME280;31493;49.058;12.190;2024-03-06T03:21:13;96036.31;;;4.84;100.00
23677;BME280;31493;49.058;12.190;2024-03-06T03:23:40;96039.47;;;4.72;100.00
23677;BME280;31493;49.058;12.190;2024-03-06T03:26:08;96038.19;;;4.81;100.00
23677;BME280;31493;49.058;12.190;2024-03-06T03:28:38;96047.09;;;4.74;100.00
23677;BME280;31493;49.058;12.190;2024-03-06T03:31:08;96038.19;;;4.81;100.00
23677;BME280;31493;49.058;12.190;2024-03-06T03:33:38;96042.59;;;4.79;100.00
23677;BME280;31493;49.058;12.190;2024-03-06T03:36:06;96046.13;;;4.76;100.00
23677;BME280;31493;49.058;12.190;2024-03-06T03:38:33;96046.81;;;4.80;100.00
23677;BME280;31493;49.058;12.190;2024-03-06T03:41:02;96043.72;;;4.90;100.00
23677;BME280;31493;49.058;12.190;2024-03-06T03:43:30;96045.97;;;4.79;100.00
23677;BME280;31493;49.058;12.190;2024-03-06T03:45:58;96045.69;;;4.85;100.00
23677;BME280;31493;49.058;12.190;2024-03-06T03:48:27;96044.63;;;4.72;100.00
23677;BME280;31493;49.058;12.190;2024-03-06T03:50:54;96050.34;;;4.60;100.00
23677;BME280;31493;49.058;12.190;2024-03-06T03:53:21;96055.25;;;4.64;100.00
23677;BME280;31493;49.058;12.190;2024-03-06T03:55:48;96052.63;;;4.66;100.00
23677;BME280;31493;49.058;12.190;2024-03-06T03:58:16;96050.72;;;4.70;100.00
23677;BME280;31493;49.058;12.190;2024-03-06T04:00:43;96057.44;;;4.55;100.00
23677;BME280;31493;49.058;12.190;2024-03-06T04:03:10;96060.84;;;4.55;100.00
23677;BME280;31493;49.058;12.190;2024-03-06T04:05:39;96055.16;;;4.49;100.00
23677;BME280;31493;49.058;12.190;2024-03-06T04:08:06;96064.06;;;4.42;100.00
23677;BME280;31493;49.058;12.190;2024-03-06T04:10:33;96059.84;;;4.41;100.00
23677;BME280;31493;49.058;12.190;2024-03-06T04:13:00;96062.34;;;4.42;100.00
23677;BME280;31493;49.058;12.190;2024-03-06T04:15:27;96064.91;;;4.42;100.00
23677;BME280;31493;49.058;12.190;2024-03-06T04:17:54;96071.25;;;4.35;100.00
23677;BME280;31493;49.058;12.190;2024-03-06T04:20:21;96057.69;;;4.31;100.00
23677;BME280;31493;49.058;12.190;2024-03-06T04:22:50;96071.25;;;4.35;100.00
23677;BME280;31493;49.058;12.190;2024-03-06T04:25:17;96063.66;;;4.32;100.00
23677;BME280;31493;49.058;12.190;2024-03-06T04:27:44;96073.06;;;4.14;100.00
23677;BME280;31493;49.058;12.190;2024-03-06T04:30:12;96064.41;;;4.17;100.00
23677;BME280;31493;49.058;12.190;2024-03-06T04:32:39;96062.59;;;4.19;100.00
23677;BME280;31493;49.058;12.190;2024-03-06T04:35:07;96069.03;;;4.08;100.00
23677;BME280;31493;49.058;12.190;2024-03-06T04:37:35;96066.97;;;4.17;100.00
23677;BME280;31493;49.058;12.190;2024-03-06T04:40:04;96071.00;;;4.22;100.00
23677;BME280;31493;49.058;12.190;2024-03-06T04:42:33;96071.66;;;4.26;100.00
23677;BME280;31493;49.058;12.190;2024-03-06T04:45:02;96078.97;;;4.16;100.00
23677;BME280;31493;49.058;12.190;2024-03-06T04:47:30;96081.31;;;4.21;100.00
23677;BME280;31493;49.058;12.190;2024-03-06T04:49:57;96083.53;;;4.28;100.00
23677;BME280;31493;49.058;12.190;2024-03-06T04:52:24;96090.91;;;4.17;100.00
23677;BME280;31493;49.058;12.190;2024-03-06T04:54:51;96077.78;;;4.23;100.00
23677;BME280;31493;49.058;12.190;2024-03-06T04:57:20;96091.97;;;4.30;100.00
23677;BME280;31493;49.058;12.190;2024-03-06T04:59:47;96095.94;;;4.37;100.00
23677;BME280;31493;49.058;12.190;2024-03-06T05:02:14;96098.41;;;4.39;100.00
23677;BME280;31493;49.058;12.190;2024-03-06T05:04:41;96094.50;;;4.49;100.00
23677;BME280;31493;49.058;12.190;2024-03-06T05:07:08;96100.41;;;4.51;100.00
23677;BME280;31493;49.058;12.190;2024-03-06T05:09:35;96102.16;;;4.32;100.00
23677;BME280;31493;49.058;12.190;2024-03-06T05:12:03;96105.38;;;4.37;100.00
23677;BME280;31493;49.058;12.190;2024-03-06T05:14:32;96113.81;;;4.39;100.00
23677;BME280;31493;49.058;12.190;2024-03-06T05:16:59;96113.94;;;4.55;100.00
23677;BME280;31493;49.058;12.190;2024-03-06T05:19:26;96109.63;;;4.55;100.00
23677;BME280;31493;49.058;12.190;2024-03-06T05:21:57;96110.47;;;4.56;100.00
23677;BME280;31493;49.058;12.190;2024-03-06T05:24:24;96104.78;;;4.49;100.00
23677;BME280;31493;49.058;12.190;2024-03-06T05:26:51;96112.56;;;4.48;100.00
23677;BME280;31493;49.058;12.190;2024-03-06T05:29:18;96109.56;;;4.57;100.00
23677;BME280;31493;49.058;12.190;2024-03-06T05:31:47;96109.00;;;4.50;100.00
23677;BME280;31493;49.058;12.190;2024-03-06T05:34:14;96113.94;;;4.55;100.00
23677;BME280;31493;49.058;12.190;2024-03-06T05:36:41;96109.47;;;4.58;100.00
23677;BME280;31493;49.058;12.190;2024-03-06T05:39:08;96125.16;;;4.52;100.00
23677;BME280;31493;49.058;12.190;2024-03-06T05:41:38;96124.59;;;4.64;100.00
23677;BME280;31493;49.058;12.190;2024-03-06T05:44:05;96114.09;;;4.69;100.00
23677;BME280;31493;49.058;12.190;2024-03-06T05:46:31;96116.84;;;4.66;100.00
23677;BME280;31493;49.058;12.190;2024-03-06T05:49:00;96113.84;;;4.56;100.00
23677;BME280;31493;49.058;12.190;2024-03-06T05:51:27;96124.34;;;4.52;100.00
23677;BME280;31493;49.058;12.190;2024-03-06T05:53:55;96130.13;;;4.74;100.00
23677;BME280;31493;49.058;12.190;2024-03-06T05:56:22;96129.16;;;4.77;100.00
23677;BME280;31493;49.058;12.190;2024-03-06T05:58:49;96139.50;;;4.75;100.00
23677;BME280;31493;49.058;12.190;2024-03-06T06:01:16;96139.69;;;4.89;100.00
23677;BME280;31493;49.058;12.190;2024-03-06T06:03:45;96137.31;;;4.68;100.00
23677;BME280;31493;49.058;12.190;2024-03-06T06:06:15;96145.38;;;4.60;100.00
23677;BME280;31493;49.058;12.190;2024-03-06T06:08:42;96148.53;;;4.84;100.00
23677;BME280;31493;49.058;12.190;2024-03-06T06:11:10;96141.59;;;5.38;100.00
23677;BME280;31493;49.058;12.190;2024-03-06T06:13:38;96140.84;;;5.18;100.00
23677;BME280;31493;49.058;12.190;2024-03-06T06:16:05;96138.81;;;5.42;100.00
23677;BME280;31493;49.058;12.190;2024-03-06T06:18:32;96143.97;;;6.09;100.00
23677;BME280;31493;49.058;12.190;2024-03-06T06:21:00;96141.25;;;5.28;100.00
23677;BME280;31493;49.058;12.190;2024-03-06T06:23:28;96157.41;;;5.13;100.00
23677;BME280;31493;49.058;12.190;2024-03-06T06:25:55;96156.75;;;5.09;100.00
23677;BME280;31493;49.058;12.190;2024-03-06T06:28:23;96163.16;;;5.18;100.00
23677;BME280;31493;49.058;12.190;2024-03-06T06:30:50;96157.56;;;5.10;100.00
23677;BME280;31493;49.058;12.190;2024-03-06T06:33:18;96167.03;;;5.09;100.00
23677;BME280;31493;49.058;12.190;2024-03-06T06:35:46;96163.75;;;5.06;100.00
23677;BME280;31493;49.058;12.190;2024-03-06T06:38:13;96168.84;;;5.25;100.00
23677;BME280;31493;49.058;12.190;2024-03-06T06:40:42;96166.81;;;5.14;100.00
23677;BME280;31493;49.058;12.190;2024-03-06T06:43:09;96172.31;;;5.24;100.00
23677;BME280;31493;49.058;12.190;2024-03-06T06:45:36;96180.25;;;5.19;100.00
23677;BME280;31493;49.058;12.190;2024-03-06T06:48:04;96168.41;;;5.34;100.00
23677;BME280;31493;49.058;12.190;2024-03-06T06:50:31;96177.63;;;5.21;100.00
23677;BME280;31493;49.058;12.190;2024-03-06T06:52:59;96173.16;;;5.24;100.00
23677;BME280;31493;49.058;12.190;2024-03-06T06:55:26;96166.66;;;5.34;100.00
23677;BME280;31493;49.058;12.190;2024-03-06T06:57:54;96175.28;;;5.51;100.00
23677;BME280;31493;49.058;12.190;2024-03-06T07:00:22;96171.41;;;5.42;100.00
23677;BME280;31493;49.058;12.190;2024-03-06T07:02:50;96168.91;;;5.40;100.00
23677;BME280;31493;49.058;12.190;2024-03-06T07:05:17;96171.84;;;5.50;100.00
23677;BME280;31493;49.058;12.190;2024-03-06T07:07:45;96163.78;;;5.40;100.00
23677;BME280;31493;49.058;12.190;2024-03-06T07:10:12;96171.31;;;5.43;100.00
23677;BME280;31493;49.058;12.190;2024-03-06T07:12:40;96179.66;;;5.49;100.00
23677;BME280;31493;49.058;12.190;2024-03-06T07:15:09;96167.91;;;5.43;100.00
23677;BME280;31493;49.058;12.190;2024-03-06T07:17:36;96180.44;;;5.84;100.00
23677;BME280;31493;49.058;12.190;2024-03-06T07:20:03;96184.56;;;5.70;100.00
23677;BME280;31493;49.058;12.190;2024-03-06T07:22:34;96190.38;;;5.74;100.00
23677;BME280;31493;49.058;12.190;2024-03-06T07:25:01;96180.16;;;5.72;100.00
23677;BME280;31493;49.058;12.190;2024-03-06T07:27:28;96184.72;;;5.50;100.00
23677;BME280;31493;49.058;12.190;2024-03-06T07:29:55;96187.44;;;5.47;100.00
23677;BME280;31493;49.058;12.190;2024-03-06T07:32:24;96192.50;;;5.66;100.00
23677;BME280;31493;49.058;12.190;2024-03-06T07:34:51;96189.25;;;5.62;100.00
23677;BME280;31493;49.058;12.190;2024-03-06T07:37:18;96201.22;;;5.63;100.00
23677;BME280;31493;49.058;12.190;2024-03-06T07:39:45;96197.34;;;5.72;100.00
23677;BME280;31493;49.058;12.190;2024-03-06T07:42:12;96194.78;;;5.55;100.00
23677;BME280;31493;49.058;12.190;2024-03-06T07:44:41;96198.56;;;5.65;100.00
23677;BME280;31493;49.058;12.190;2024-03-06T07:47:08;96207.47;;;5.75;100.00
23677;BME280;31493;49.058;12.190;2024-03-06T07:49:36;96219.19;;;5.81;100.00
23677;BME280;31493;49.058;12.190;2024-03-06T07:52:04;96214.94;;;5.80;100.00
23677;BME280;31493;49.058;12.190;2024-03-06T07:54:31;96221.25;;;5.57;100.00
23677;BME280;31493;49.058;12.190;2024-03-06T07:56:58;96218.38;;;5.63;100.00
23677;BME280;31493;49.058;12.190;2024-03-06T07:59:25;96227.69;;;5.65;100.00
23677;BME280;31493;49.058;12.190;2024-03-06T08:01:52;96232.88;;;5.81;100.00
23677;BME280;31493;49.058;12.190;2024-03-06T08:04:21;96221.84;;;5.79;100.00
23677;BME280;31493;49.058;12.190;2024-03-06T08:06:50;96217.00;;;5.90;100.00
23677;BME280;31493;49.058;12.190;2024-03-06T08:09:17;96219.25;;;5.96;100.00
23677;BME280;31493;49.058;12.190;2024-03-06T08:11:45;96213.56;;;6.07;100.00
23677;BME280;31493;49.058;12.190;2024-03-06T08:14:12;96233.56;;;6.02;100.00
23677;BME280;31493;49.058;12.190;2024-03-06T08:16:40;96226.41;;;6.24;100.00
23677;BME280;31493;49.058;12.190;2024-03-06T08:19:08;96214.72;;;6.17;100.00
23677;BME280;31493;49.058;12.190;2024-03-06T08:21:35;96223.25;;;6.02;100.00
23677;BME280;31493;49.058;12.190;2024-03-06T08:24:04;96229.59;;;6.12;100.00
23677;BME280;31493;49.058;12.190;2024-03-06T08:26:31;96240.97;;;6.24;100.00
23677;BME280;31493;49.058;12.190;2024-03-06T08:28:58;96242.34;;;6.31;100.00
23677;BME280;31493;49.058;12.190;2024-03-06T08:31:25;96233.56;;;6.51;100.00
23677;BME280;31493;49.058;12.190;2024-03-06T08:33:52;96243.69;;;6.54;100.00
23677;BME280;31493;49.058;12.190;2024-03-06T08:36:20;96246.13;;;6.73;100.00
23677;BME280;31493;49.058;12.190;2024-03-06T08:38:48;96233.81;;;6.78;100.00
23677;BME280;31493;49.058;12.190;2024-03-06T08:41:16;96242.47;;;7.08;100.00
23677;BME280;31493;49.058;12.190;2024-03-06T08:43:43;96228.78;;;6.92;100.00
23677;BME280;31493;49.058;12.190;2024-03-06T08:46:11;96248.72;;;7.04;100.00
23677;BME280;31493;49.058;12.190;2024-03-06T08:48:39;96235.50;;;6.63;100.00
23677;BME280;31493;49.058;12.190;2024-03-06T08:51:06;96239.31;;;6.72;100.00
23677;BME280;31493;49.058;12.190;2024-03-06T08:53:36;96239.53;;;7.15;100.00
23677;BME280;31493;49.058;12.190;2024-03-06T08:56:05;96243.91;;;6.98;100.00
23677;BME280;31493;49.058;12.190;2024-03-06T08:58:33;96225.34;;;7.07;100.00
23677;BME280;31493;49.058;12.190;2024-03-06T09:01:00;96235.91;;;7.03;100.00
23677;BME280;31493;49.058;12.190;2024-03-06T09:03:27;96233.50;;;6.84;100.00
23677;BME280;31493;49.058;12.190;2024-03-06T09:05:54;96241.91;;;6.88;100.00
23677;BME280;31493;49.058;12.190;2024-03-06T09:08:22;96237.31;;;6.77;100.00
23677;BME280;31493;49.058;12.190;2024-03-06T09:10:49;96249.28;;;6.78;100.00
23677;BME280;31493;49.058;12.190;2024-03-06T09:13:16;96247.06;;;6.88;100.00
23677;BME280;31493;49.058;12.190;2024-03-06T09:15:44;96253.56;;;7.11;100.00
23677;BME280;31493;49.058;12.190;2024-03-06T09:18:11;96245.44;;;7.48;100.00
23677;BME280;31493;49.058;12.190;2024-03-06T09:20:38;96250.59;;;7.32;100.00
23677;BME280;31493;49.058;12.190;2024-03-06T09:23:05;96245.84;;;7.41;100.00
23677;BME280;31493;49.058;12.190;2024-03-06T09:25:32;96242.75;;;7.80;100.00
23677;BME280;31493;49.058;12.190;2024-03-06T09:27:59;96244.78;;;7.89;100.00
23677;BME280;31493;49.058;12.190;2024-03-06T09:30:30;96247.66;;;7.84;100.00
23677;BME280;31493;49.058;12.190;2024-03-06T09:32:58;96250.84;;;7.59;100.00
23677;BME280;31493;49.058;12.190;2024-03-06T09:35:25;96255.94;;;7.89;100.00
23677;BME280;31493;49.058;12.190;2024-03-06T09:37:52;96244.53;;;8.08;100.00
23677;BME280;31493;49.058;12.190;2024-03-06T09:40:20;96258.09;;;7.97;100.00
23677;BME280;31493;49.058;12.190;2024-03-06T09:42:49;96259.69;;;8.57;100.00
23677;BME280;31493;49.058;12.190;2024-03-06T09:45:16;96262.84;;;8.76;100.00
23677;BME280;31493;49.058;12.190;2024-03-06T09:47:46;96249.38;;;8.71;100.00
23677;BME280;31493;49.058;12.190;2024-03-06T09:50:16;96254.53;;;8.57;100.00
23677;BME280;31493;49.058;12.190;2024-03-06T09:52:47;96247.59;;;8.57;100.00
23677;BME280;31493;49.058;12.190;2024-03-06T09:55:16;96242.81;;;8.51;100.00
23677;BME280;31493;49.058;12.190;2024-03-06T09:57:44;96246.41;;;8.49;100.00
23677;BME280;31493;49.058;12.190;2024-03-06T10:00:11;96252.22;;;8.66;100.00
23677;BME280;31493;49.058;12.190;2024-03-06T10:02:45;96255.06;;;8.62;100.00
23677;BME280;31493;49.058;12.190;2024-03-06T10:05:24;96248.72;;;8.39;100.00
23677;BME280;31493;49.058;12.190;2024-03-06T10:07:51;96241.91;;;8.52;100.00
23677;BME280;31493;49.058;12.190;2024-03-06T10:10:19;96243.09;;;8.47;100.00
23677;BME280;31493;49.058;12.190;2024-03-06T10:12:49;96249.72;;;8.79;100.00
23677;BME280;31493;49.058;12.190;2024-03-06T10:15:16;96252.28;;;8.79;100.00
23677;BME280;31493;49.058;12.190;2024-03-06T10:17:43;96251.53;;;9.18;100.00
23677;BME280;31493;49.058;12.190;2024-03-06T10:20:19;96253.50;;;9.29;100.00
23677;BME280;31493;49.058;12.190;2024-03-06T10:22:48;96245.94;;;9.12;100.00
23677;BME280;31493;49.058;12.190;2024-03-06T10:25:18;96263.56;;;8.78;100.00
23677;BME280;31493;49.058;12.190;2024-03-06T10:27:45;96260.63;;;8.70;100.00
23677;BME280;31493;49.058;12.190;2024-03-06T10:30:13;96256.66;;;8.36;100.00
23677;BME280;31493;49.058;12.190;2024-03-06T10:32:42;96257.03;;;8.30;100.00
23677;BME280;31493;49.058;12.190;2024-03-06T10:35:18;96268.34;;;8.84;100.00
23677;BME280;31493;49.058;12.190;2024-03-06T10:37:45;96262.66;;;8.65;100.00
23677;BME280;31493;49.058;12.190;2024-03-06T10:40:15;96260.97;;;8.78;100.00
23677;BME280;31493;49.058;12.190;2024-03-06T10:42:44;96258.69;;;8.59;100.00
23677;BME280;31493;49.058;12.190;2024-03-06T10:45:13;96269.94;;;8.30;100.00
23677;BME280;31493;49.058;12.190;2024-03-06T10:47:45;96267.28;;;8.46;100.00
23677;BME280;31493;49.058;12.190;2024-03-06T10:50:14;96275.38;;;8.68;100.00
23677;BME280;31493;49.058;12.190;2024-03-06T10:52:42;96278.44;;;8.46;100.00
23677;BME280;31493;49.058;12.190;2024-03-06T10:55:12;96279.63;;;8.69;100.00
23677;BME280;31493;49.058;12.190;2024-03-06T10:57:41;96277.34;;;8.36;100.00
23677;BME280;31493;49.058;12.190;2024-03-06T11:02:38;96282.41;;;8.37;100.00
23677;BME280;31493;49.058;12.190;2024-03-06T11:05:07;96283.13;;;8.68;100.00
23677;BME280;31493;49.058;12.190;2024-03-06T11:07:35;96282.97;;;8.42;100.00
23677;BME280;31493;49.058;12.190;2024-03-06T11:10:02;96279.81;;;8.37;100.00
23677;BME280;31493;49.058;12.190;2024-03-06T11:12:33;96281.38;;;8.26;100.00
23677;BME280;31493;49.058;12.190;2024-03-06T11:15:09;96284.88;;;8.39;100.00
23677;BME280;31493;49.058;12.190;2024-03-06T11:17:38;96267.53;;;8.55;100.00
23677;BME280;31493;49.058;12.190;2024-03-06T11:20:08;96277.31;;;8.79;100.00
23677;BME280;31493;49.058;12.190;2024-03-06T11:23:02;96277.41;;;8.91;100.00
23677;BME280;31493;49.058;12.190;2024-03-06T11:28:38;96281.47;;;9.22;100.00
23677;BME280;31493;49.058;12.190;2024-03-06T11:31:08;96277.34;;;9.20;100.00
23677;BME280;31493;49.058;12.190;2024-03-06T11:33:39;96273.66;;;9.24;100.00
23677;BME280;31493;49.058;12.190;2024-03-06T11:36:15;96264.63;;;9.84;97.90
23677;BME280;31493;49.058;12.190;2024-03-06T11:38:46;96271.41;;;10.12;96.54
23677;BME280;31493;49.058;12.190;2024-03-06T11:41:13;96264.22;;;9.90;96.88
23677;BME280;31493;49.058;12.190;2024-03-06T11:43:43;96269.13;;;9.67;94.77
23677;BME280;31493;49.058;12.190;2024-03-06T11:46:10;96270.91;;;9.67;96.61
23677;BME280;31493;49.058;12.190;2024-03-06T11:48:39;96255.63;;;10.02;94.75
23677;BME280;31493;49.058;12.190;2024-03-06T11:51:06;96272.22;;;9.60;94.21
23677;BME280;31493;49.058;12.190;2024-03-06T11:53:34;96266.72;;;10.04;94.92
23677;BME280;31493;49.058;12.190;2024-03-06T11:56:05;96267.03;;;9.99;91.57
23677;BME280;31493;49.058;12.190;2024-03-06T11:58:34;96263.22;;;10.30;89.56
23677;BME280;31493;49.058;12.190;2024-03-06T12:01:01;96256.28;;;11.06;85.73
23677;BME280;31493;49.058;12.190;2024-03-06T12:03:28;96255.31;;;10.57;87.39
23677;BME280;31493;49.058;12.190;2024-03-06T12:05:56;96262.41;;;11.42;84.04
23677;BME280;31493;49.058;12.190;2024-03-06T12:08:24;96254.97;;;11.00;86.19
23677;BME280;31493;49.058;12.190;2024-03-06T12:10:52;96254.72;;;11.75;81.10
23677;BME280;31493;49.058;12.190;2024-03-06T12:13:21;96260.81;;;10.40;83.74
23677;BME280;31493;49.058;12.190;2024-03-06T12:15:48;96269.00;;;9.96;88.14
23677;BME280;31493;49.058;12.190;2024-03-06T12:18:16;96269.22;;;9.53;90.74
23677;BME280;31493;49.058;12.190;2024-03-06T12:20:44;96267.66;;;9.23;92.92
23677;BME280;31493;49.058;12.190;2024-03-06T12:23:23;96269.03;;;9.56;90.85
23677;BME280;31493;49.058;12.190;2024-03-06T12:26:02;96277.16;;;9.77;90.06
23677;BME280;31493;49.058;12.190;2024-03-06T12:28:29;96281.94;;;9.96;89.23
23677;BME280;31493;49.058;12.190;2024-03-06T12:30:57;96269.81;;;9.84;86.19
23677;BME280;31493;49.058;12.190;2024-03-06T12:33:26;96262.50;;;9.36;84.62
23677;BME280;31493;49.058;12.190;2024-03-06T12:36:04;96268.03;;;9.84;85.71
23677;BME280;31493;49.058;12.190;2024-03-06T12:38:33;96261.13;;;9.97;85.21
23677;BME280;31493;49.058;12.190;2024-03-06T12:41:00;96262.06;;;9.96;84.45
23677;BME280;31493;49.058;12.190;2024-03-06T12:43:27;96268.34;;;9.92;84.58
23677;BME280;31493;49.058;12.190;2024-03-06T12:45:55;96268.28;;;9.94;86.57
23677;BME280;31493;49.058;12.190;2024-03-06T12:48:23;96258.47;;;9.59;86.47
23677;BME280;31493;49.058;12.190;2024-03-06T12:50:51;96258.16;;;9.37;87.60
23677;BME280;31493;49.058;12.190;2024-03-06T12:53:20;96264.69;;;9.57;87.63
23677;BME280;31493;49.058;12.190;2024-03-06T12:55:48;96264.25;;;9.50;88.64
23677;BME280;31493;49.058;12.190;2024-03-06T12:58:16;96252.78;;;9.67;88.15
23677;BME280;31493;49.058;12.190;2024-03-06T13:00:43;96259.19;;;10.14;86.98